createdAt,value
2018-07-10T00:00:25.137Z,83.36
2018-07-10T00:01:35.214Z,83.06
2018-07-10T00:02:45.279Z,82.87
2018-07-10T00:03:55.358Z,82.78
2018-07-10T00:05:05.169Z,82.87
2018-07-10T00:06:14.742Z,82.87
2018-07-10T00:07:24.552Z,82.2
2018-07-10T00:08:34.337Z,82.87
2018-07-10T00:09:44.142Z,82.49
2018-07-10T00:10:53.397Z,83.26
2018-07-10T00:12:03.519Z,82.97
2018-07-10T00:13:13.407Z,82.4
2018-07-10T00:14:22.956Z,82.68
2018-07-10T00:15:33.004Z,82.01
2018-07-10T00:16:42.792Z,82.2
2018-07-10T00:17:52.905Z,81.92
2018-07-10T00:19:02.984Z,82.2
2018-07-10T00:20:13.065Z,82.2
2018-07-10T00:21:22.855Z,81.92
2018-07-10T00:22:32.937Z,81.25
2018-07-10T00:23:43.108Z,81.25
2018-07-10T00:24:52.633Z,81.05
2018-07-10T00:26:02.718Z,81.73
2018-07-10T00:27:12.531Z,81.73
2018-07-10T00:28:22.585Z,81.92
2018-07-10T00:29:32.177Z,81.92
2018-07-10T00:30:42.242Z,81.15
2018-07-10T00:31:52.326Z,81.34
2018-07-10T00:33:02.397Z,81.05
2018-07-10T00:34:12.195Z,81.92
2018-07-10T00:35:22.039Z,81.34
2018-07-10T00:36:31.845Z,81.44
2018-07-10T00:37:41.927Z,81.63
2018-07-10T00:38:51.730Z,81.15
2018-07-10T00:40:01.254Z,81.54
2018-07-10T00:41:10.820Z,80.96
2018-07-10T00:42:20.896Z,80.77
2018-07-10T00:43:30.964Z,81.05
2018-07-10T00:44:41.053Z,81.15
2018-07-10T00:45:51.134Z,80.96
2018-07-10T00:47:00.973Z,80.96
2018-07-10T00:48:10.774Z,80.58
2018-07-10T00:49:20.304Z,80.67
2018-07-10T00:50:29.832Z,81.25
2018-07-10T00:51:39.925Z,81.25
2018-07-10T00:52:50.050Z,80.77
2018-07-10T00:54:00.115Z,80.96
2018-07-10T00:55:09.895Z,81.15
2018-07-10T00:56:19.966Z,81.25
2018-07-10T00:57:29.767Z,81.25
2018-07-10T00:58:39.605Z,81.05
2018-07-10T00:59:49.667Z,81.44
2018-07-10T01:00:59.448Z,81.15
2018-07-10T01:02:09.500Z,80.87
2018-07-10T01:03:19.275Z,81.73
2018-07-10T01:04:29.132Z,81.34
2018-07-10T01:05:38.945Z,81.92
2018-07-10T01:06:48.745Z,81.88
2018-07-10T01:07:58.836Z,82.4
2018-07-10T01:09:08.649Z,82.45
2018-07-10T01:10:18.509Z,82.49
2018-07-10T01:11:28.338Z,82.54
2018-07-10T01:12:38.147Z,82.74
2018-07-10T01:13:47.411Z,82.54
2018-07-10T01:14:57.699Z,82.54
2018-07-10T01:16:07.543Z,82.54
2018-07-10T01:17:17.607Z,82.17
2018-07-10T01:18:27.667Z,82.17
2018-07-10T01:19:37.470Z,82.35
2018-07-10T01:20:47.536Z,82.93
2018-07-10T01:21:57.665Z,83.31
2018-07-10T01:23:07.512Z,83.12
2018-07-10T01:24:17.575Z,82.74
2018-07-10T01:25:27.364Z,82.64
2018-07-10T01:26:37.423Z,82.83
2018-07-10T01:27:47.556Z,82.64
2018-07-10T01:28:57.354Z,83.12
2018-07-10T01:30:07.454Z,82.83
2018-07-10T01:31:16.987Z,83.03
2018-07-10T01:32:26.786Z,83.12
2018-07-10T01:33:36.979Z,82.93
2018-07-10T01:34:46.434Z,83.31
2018-07-10T01:35:56.224Z,83.22
2018-07-10T01:37:05.206Z,82.93
2018-07-10T01:38:14.742Z,83.03
2018-07-10T01:39:24.882Z,82.83
2018-07-10T01:40:34.687Z,82.83
2018-07-10T01:41:44.752Z,82.26
2018-07-10T01:42:54.306Z,82.93
2018-07-10T01:44:04.119Z,82.74
2018-07-10T01:45:14.000Z,82.93
2018-07-10T01:46:23.814Z,82.45
2018-07-10T01:47:33.614Z,83.22
2018-07-10T01:48:43.662Z,83.03
2018-07-10T01:49:53.475Z,82.93
2018-07-10T01:51:06.892Z,82.74
2018-07-10T01:52:16.958Z,83.31
2018-07-10T01:53:27.024Z,83.12
2018-07-10T01:54:37.096Z,83.08
2018-07-10T01:55:46.626Z,83.4
2018-07-10T01:56:56.735Z,82.98
2018-07-10T01:58:06.812Z,83.22
2018-07-10T01:59:16.607Z,83.22
2018-07-10T02:00:26.670Z,83.37
2018-07-10T02:01:36.753Z,83.4
2018-07-10T02:02:46.602Z,83.56
2018-07-10T02:03:56.732Z,82.98
2018-07-10T02:05:06.525Z,83.4
2018-07-10T02:06:16.051Z,83.56
2018-07-10T02:07:26.142Z,83.69
2018-07-10T02:08:36.262Z,83.56
2018-07-10T02:09:46.060Z,83.37
2018-07-10T02:10:56.151Z,83.94
2018-07-10T02:12:06.232Z,84.32
2018-07-10T02:13:16.285Z,84.13
2018-07-10T02:14:26.384Z,83.75
2018-07-10T02:15:36.227Z,83.94
2018-07-10T02:16:45.758Z,84.03
2018-07-10T02:17:55.563Z,84.42
2018-07-10T02:19:05.613Z,83.46
2018-07-10T02:20:15.746Z,83.56
2018-07-10T02:21:25.806Z,84.32
2018-07-10T02:22:35.878Z,84.13
2018-07-10T02:23:45.935Z,83.84
2018-07-10T02:24:56.005Z,84.32
2018-07-10T02:26:05.850Z,83.84
2018-07-10T02:27:15.657Z,84.03
2018-07-10T02:28:25.714Z,84.03
2018-07-10T02:29:35.775Z,84.32
2018-07-10T02:30:45.854Z,84.32
2018-07-10T02:31:55.996Z,84.23
2018-07-10T02:33:06.059Z,84.42
2018-07-10T02:34:16.148Z,84.52
2018-07-10T02:35:26.275Z,84.32
2018-07-10T02:36:36.072Z,84.13
2018-07-10T02:37:45.946Z,84.13
2018-07-10T02:38:56.015Z,84.7
2018-07-10T02:40:05.544Z,84.52
2018-07-10T02:41:15.361Z,84.52
2018-07-10T02:42:25.423Z,85.28
2018-07-10T02:43:35.276Z,84.42
2018-07-10T02:44:45.081Z,84.32
2018-07-10T02:45:54.900Z,84.8
2018-07-10T02:47:04.719Z,83.84
2018-07-10T02:48:14.254Z,83.94
2018-07-10T02:49:24.369Z,83.75
2018-07-10T02:50:34.444Z,83.75
2018-07-10T02:51:43.988Z,84.32
2018-07-10T02:52:54.064Z,84.13
2018-07-10T02:54:04.156Z,83.94
2018-07-10T02:55:14.304Z,83.94
2018-07-10T02:56:24.352Z,84.03
2018-07-10T02:57:34.159Z,83.65
2018-07-10T02:58:43.952Z,83.75
2018-07-10T02:59:54.021Z,84.03
2018-07-10T03:03:42.000Z,84.03
2018-07-10T03:04:52.091Z,84.23
2018-07-10T03:06:01.081Z,84.03
2018-07-10T03:07:10.622Z,83.84
2018-07-10T03:08:20.407Z,83.56
2018-07-10T03:09:30.536Z,83.84
2018-07-10T03:10:40.060Z,83.56
2018-07-10T03:11:49.853Z,83.65
2018-07-10T03:12:59.909Z,83.6
2018-07-10T03:14:09.431Z,83.75
2018-07-10T03:15:19.567Z,83.75
2018-07-10T03:16:29.356Z,83.12
2018-07-10T03:17:39.434Z,84.08
2018-07-10T03:18:49.509Z,83.79
2018-07-10T03:19:59.324Z,83.75
2018-07-10T03:21:08.357Z,83.75
2018-07-10T03:22:18.412Z,83.6
2018-07-10T03:23:28.217Z,83.6
2018-07-10T03:24:37.745Z,83.6
2018-07-10T03:25:47.808Z,83.22
2018-07-10T03:26:57.677Z,83.31
2018-07-10T03:28:07.474Z,83.89
2018-07-10T03:29:17.545Z,83.6
2018-07-10T03:30:27.351Z,83.69
2018-07-10T03:31:36.896Z,83.69
2018-07-10T03:32:47.045Z,83.22
2018-07-10T03:33:57.119Z,83.5
2018-07-10T03:35:07.201Z,82.93
2018-07-10T03:36:17.028Z,83.69
2018-07-10T03:37:26.915Z,84.46
2018-07-10T03:38:37.038Z,82.74
2018-07-10T03:39:47.121Z,82.93
2018-07-10T03:40:56.379Z,83.03
2018-07-10T03:42:06.470Z,83.31
2018-07-10T03:43:16.333Z,83.22
2018-07-10T03:44:26.386Z,84.17
2018-07-10T03:45:36.661Z,82.64
2018-07-10T03:46:46.940Z,82.74
2018-07-10T03:47:56.942Z,82.83
2018-07-10T03:49:07.218Z,82.54
2018-07-10T03:50:17.545Z,82.64
2018-07-10T03:51:27.549Z,82.35
2018-07-10T03:52:37.833Z,82.83
2018-07-10T03:53:47.824Z,83.31
2018-07-10T03:54:58.102Z,81.78
2018-07-10T03:56:07.863Z,82.49
2018-07-10T03:57:18.147Z,81.63
2018-07-10T03:58:28.140Z,82.49
2018-07-10T03:59:38.416Z,81.15
2018-07-10T04:00:48.409Z,80.38
2018-07-10T04:01:58.738Z,81.73
2018-07-10T04:03:08.733Z,80.87
2018-07-10T04:04:18.444Z,81.92
2018-07-10T04:05:28.735Z,81.73
2018-07-10T04:06:39.020Z,81.54
2018-07-10T04:07:49.350Z,80
2018-07-10T04:08:59.362Z,79.91
2018-07-10T04:10:09.180Z,80.1
2018-07-10T04:11:19.505Z,80.87
2018-07-10T04:12:29.782Z,81.44
2018-07-10T04:13:39.827Z,81.15
2018-07-10T04:14:50.106Z,81.44
2018-07-10T04:16:00.384Z,80.87
2018-07-10T04:17:10.383Z,80.77
2018-07-10T04:18:20.669Z,80.67
2018-07-10T04:19:31.009Z,80.38
2018-07-10T04:20:41.005Z,80.58
2018-07-10T04:21:50.715Z,81.44
2018-07-10T04:23:00.994Z,80.87
2018-07-10T04:24:11.274Z,80.87
2018-07-10T04:25:21.032Z,80.77
2018-07-10T04:26:30.458Z,81.34
2018-07-10T04:27:40.788Z,80.87
2018-07-10T04:28:51.152Z,80.29
2018-07-10T04:30:01.768Z,80.29
2018-07-10T04:31:11.528Z,80.77
2018-07-10T04:32:21.809Z,80.87
2018-07-10T04:33:32.083Z,79.72
2018-07-10T04:34:42.369Z,79.85
2018-07-10T04:35:52.645Z,79.47
2018-07-10T04:37:02.732Z,79.37
2018-07-10T04:38:12.729Z,78.42
2018-07-10T04:39:22.439Z,80.04
2018-07-10T04:40:32.720Z,80.33
2018-07-10T04:41:42.717Z,80.04
2018-07-10T04:42:52.766Z,79.28
2018-07-10T04:44:03.056Z,80.62
2018-07-10T04:45:13.052Z,79.75
2018-07-10T04:46:23.045Z,79.85
2018-07-10T04:47:33.047Z,80.04
2018-07-10T04:48:43.104Z,79.66
2018-07-10T04:49:53.105Z,79.47
2018-07-10T04:51:03.117Z,79.28
2018-07-10T04:52:13.124Z,80.04
2018-07-10T04:53:22.831Z,79.57
2018-07-10T04:54:32.592Z,80.9
2018-07-10T04:55:42.870Z,81.38
2018-07-10T04:56:53.155Z,80.43
2018-07-10T04:58:03.436Z,80.1
2018-07-10T04:59:13.719Z,80.77
2018-07-10T05:00:23.763Z,80.1
2018-07-10T05:01:33.768Z,80
2018-07-10T05:02:43.478Z,80.87
2018-07-10T05:03:53.760Z,80.52
2018-07-10T05:05:03.760Z,81.1
2018-07-10T05:06:13.517Z,80.67
2018-07-10T05:07:23.515Z,79.72
2018-07-10T05:08:33.507Z,80.62
2018-07-10T05:09:43.801Z,80.29
2018-07-10T05:10:53.798Z,80.62
2018-07-10T05:12:03.911Z,81.96
2018-07-10T05:13:14.481Z,80.14
2018-07-10T05:14:24.769Z,81.38
2018-07-10T05:15:34.770Z,80.71
2018-07-10T05:16:45.048Z,81.29
2018-07-10T05:17:55.091Z,81
2018-07-10T05:19:05.089Z,80.52
2018-07-10T05:20:14.519Z,81.2
2018-07-10T05:21:24.515Z,81.29
2018-07-10T05:22:34.512Z,80.71
2018-07-10T05:23:44.842Z,81.29
2018-07-10T05:24:54.553Z,80.81
2018-07-10T05:26:04.833Z,81.1
2018-07-10T05:27:14.826Z,81.48
2018-07-10T05:28:25.102Z,81.57
2018-07-10T05:29:35.150Z,81.38
2018-07-10T05:30:45.426Z,81.2
2018-07-10T05:31:55.419Z,82.15
2018-07-10T05:33:05.702Z,81.96
2018-07-10T05:34:15.991Z,80.52
2018-07-10T05:35:25.765Z,79.75
2018-07-10T05:36:36.045Z,80.62
2018-07-10T05:37:46.036Z,80.47
2018-07-10T05:38:55.746Z,78.64
2018-07-10T05:40:05.175Z,78.45
2018-07-10T05:41:15.232Z,78.74
2018-07-10T05:42:25.514Z,78.84
2018-07-10T05:43:35.790Z,78.64
2018-07-10T05:44:46.082Z,79.6
2018-07-10T05:45:55.790Z,78.27
2018-07-10T05:47:06.169Z,78.17
2018-07-10T05:48:15.882Z,77.44
2018-07-10T05:49:26.157Z,77.63
2018-07-10T05:50:36.147Z,77.82
2018-07-10T05:51:46.240Z,77.92
2018-07-10T05:52:56.549Z,77.15
2018-07-10T05:54:06.548Z,78.02
2018-07-10T05:55:16.834Z,77.09
2018-07-10T05:56:27.119Z,76.57
2018-07-10T05:57:37.448Z,76.57
2018-07-10T05:58:47.941Z,76.23
2018-07-10T05:59:57.810Z,76.81
2018-07-10T06:01:07.240Z,76.9
2018-07-10T06:02:17.520Z,76.23
2018-07-10T06:03:27.808Z,75.27
2018-07-10T06:04:38.198Z,75.65
2018-07-10T06:05:48.327Z,74.98
2018-07-10T06:06:58.324Z,75.65
2018-07-10T06:08:07.751Z,74.51
2018-07-10T06:09:17.752Z,74.12
2018-07-10T06:10:28.169Z,75.08
2018-07-10T06:11:38.397Z,74.54
2018-07-10T06:12:48.401Z,74.44
2018-07-10T06:13:58.470Z,75.6
2018-07-10T06:15:09.142Z,74.44
2018-07-10T06:16:19.016Z,73.77
2018-07-10T06:17:29.554Z,74.64
2018-07-10T06:18:39.550Z,73.39
2018-07-10T06:19:49.834Z,73.68
2018-07-10T06:20:59.828Z,73.97
2018-07-10T06:22:09.904Z,72.81
2018-07-10T06:23:20.313Z,73.39
2018-07-10T06:24:30.606Z,73.3
2018-07-10T06:25:40.885Z,73.87
2018-07-10T06:26:51.170Z,73.39
2018-07-10T06:28:01.222Z,73.14
2018-07-10T06:29:10.935Z,73.24
2018-07-10T06:30:21.273Z,72.85
2018-07-10T06:31:31.022Z,73.33
2018-07-10T06:32:41.304Z,73.33
2018-07-10T06:33:51.071Z,73.43
2018-07-10T06:35:01.352Z,72.95
2018-07-10T06:36:11.359Z,72.47
2018-07-10T06:37:21.640Z,71.03
2018-07-10T06:38:31.360Z,70.93
2018-07-10T06:39:40.877Z,71.03
2018-07-10T06:40:50.689Z,71.51
2018-07-10T06:42:00.971Z,71.31
2018-07-10T06:43:10.690Z,71.51
2018-07-10T06:44:20.972Z,71.12
2018-07-10T06:45:30.732Z,71.41
2018-07-10T06:46:40.489Z,71.7
2018-07-10T06:47:50.558Z,71.06
2018-07-10T06:49:00.280Z,69.87
2018-07-10T06:50:09.992Z,68.37
2018-07-10T06:51:20.324Z,69.68
2018-07-10T06:52:31.013Z,70.49
2018-07-10T06:53:41.171Z,71.22
2018-07-10T06:54:51.235Z,69.91
2018-07-10T06:56:01.528Z,70.29
2018-07-10T06:57:11.860Z,69.91
2018-07-10T06:58:21.571Z,68.08
2018-07-10T06:59:31.281Z,68.76
2018-07-10T07:00:41.101Z,70.29
2018-07-10T07:01:51.673Z,69.62
2018-07-10T07:03:01.446Z,69.62
2018-07-10T07:04:11.738Z,69.53
2018-07-10T07:05:21.458Z,68.57
2018-07-10T07:06:31.799Z,68.57
2018-07-10T07:07:41.849Z,67.51
2018-07-10T07:08:52.387Z,68.47
2018-07-10T07:10:02.681Z,68.57
2018-07-10T07:11:12.684Z,67.9
2018-07-10T07:12:22.400Z,69.37
2018-07-10T07:13:32.683Z,67.54
2018-07-10T07:14:42.733Z,67.41
2018-07-10T07:15:52.860Z,69.81
2018-07-10T07:17:02.626Z,67.93
2018-07-10T07:18:12.908Z,68.66
2018-07-10T07:19:22.905Z,69.08
2018-07-10T07:20:33.246Z,68.6
2018-07-10T07:21:42.965Z,68.12
2018-07-10T07:22:52.691Z,67.16
2018-07-10T07:24:02.983Z,66.68
2018-07-10T07:25:12.980Z,69.08
2018-07-10T07:26:22.754Z,67.64
2018-07-10T07:27:32.754Z,66.87
2018-07-10T07:28:43.035Z,67.64
2018-07-10T07:29:53.030Z,66.49
2018-07-10T07:31:03.308Z,67.64
2018-07-10T07:32:13.640Z,68.63
2018-07-10T07:33:23.920Z,67.64
2018-07-10T07:34:34.200Z,65.75
2018-07-10T07:35:44.502Z,65.66
2018-07-10T07:36:54.790Z,65.56
2018-07-10T07:38:04.555Z,65.66
2018-07-10T07:39:14.275Z,65.66
2018-07-10T07:40:24.001Z,65.75
2018-07-10T07:41:34.281Z,66.91
2018-07-10T07:42:44.002Z,65.56
2018-07-10T07:43:54.626Z,65.56
2018-07-10T07:45:05.230Z,66.52
2018-07-10T07:46:15.225Z,65.66
2018-07-10T07:47:25.219Z,66.52
2018-07-10T07:48:35.505Z,65.84
2018-07-10T07:49:45.840Z,64.69
2018-07-10T07:50:55.563Z,65.37
2018-07-10T07:52:05.562Z,65.08
2018-07-10T07:53:15.277Z,65.37
2018-07-10T07:54:25.276Z,65.5
2018-07-10T07:55:35.038Z,66.84
2018-07-10T07:56:45.321Z,66.17
2018-07-10T07:57:55.608Z,65.69
2018-07-10T07:59:05.887Z,64.92
2018-07-10T08:00:15.884Z,64.63
2018-07-10T08:01:25.699Z,64.73
2018-07-10T08:02:35.414Z,63.28
2018-07-10T08:03:45.702Z,64.28
2018-07-10T08:04:55.989Z,63.09
2018-07-10T08:06:06.074Z,62.51
2018-07-10T08:07:16.411Z,63.86
2018-07-10T08:08:26.703Z,63.67
2018-07-10T08:09:36.415Z,64.08
2018-07-10T08:10:46.410Z,64.18
2018-07-10T08:11:56.698Z,62.06
2018-07-10T08:13:07.157Z,62.35
2018-07-10T08:14:17.627Z,61.77
2018-07-10T08:15:27.341Z,62.06
2018-07-10T08:16:37.628Z,62.74
2018-07-10T08:17:47.632Z,63.12
2018-07-10T08:18:57.968Z,62.38
2018-07-10T08:20:07.695Z,61.8
2018-07-10T08:21:17.982Z,62.29
2018-07-10T08:22:27.715Z,62.38
2018-07-10T08:23:37.724Z,62.19
2018-07-10T08:24:48.055Z,62.38
2018-07-10T08:25:58.336Z,62.41
2018-07-10T08:27:08.626Z,62.38
2018-07-10T08:28:18.909Z,61.45
2018-07-10T08:29:28.623Z,59.91
2018-07-10T08:30:38.676Z,61.32
2018-07-10T08:31:48.959Z,61.9
2018-07-10T08:32:59.287Z,62.19
2018-07-10T08:34:09.204Z,62.67
2018-07-10T08:35:18.925Z,59.88
2018-07-10T08:36:29.258Z,60.46
2018-07-10T08:37:39.253Z,60.75
2018-07-10T08:38:49.537Z,60.75
2018-07-10T08:39:59.864Z,62
2018-07-10T08:41:10.155Z,61.52
2018-07-10T08:42:19.644Z,59.69
2018-07-10T08:43:29.642Z,59.88
2018-07-10T08:44:39.652Z,60.49
2018-07-10T08:45:49.647Z,60.3
2018-07-10T08:46:59.654Z,59.78
2018-07-10T08:48:09.723Z,60.49
2018-07-10T08:49:20.010Z,61.35
2018-07-10T08:50:30.011Z,61.45
2018-07-10T08:51:40.146Z,60.97
2018-07-10T08:52:50.148Z,60.2
2018-07-10T08:54:00.209Z,60.2
2018-07-10T08:55:10.215Z,60.97
2018-07-10T08:56:19.937Z,60.68
2018-07-10T08:57:30.224Z,61.25
2018-07-10T08:58:40.229Z,61.25
2018-07-10T08:59:50.113Z,61.16
2018-07-10T09:01:00.830Z,59.45
2018-07-10T09:02:10.831Z,59.94
2018-07-10T09:03:20.837Z,59.65
2018-07-10T09:04:31.120Z,60.61
2018-07-10T09:05:41.461Z,60.61
2018-07-10T09:06:51.468Z,59.84
2018-07-10T09:08:01.563Z,61.71
2018-07-10T09:09:12.220Z,59.2
2018-07-10T09:10:22.506Z,58.81
2018-07-10T09:11:32.431Z,59.2
2018-07-10T09:12:42.434Z,59.48
2018-07-10T09:13:52.792Z,58.84
2018-07-10T09:15:02.699Z,58.45
2018-07-10T09:16:12.354Z,58.45
2018-07-10T09:17:22.306Z,57.59
2018-07-10T09:18:31.847Z,57.59
2018-07-10T09:19:41.647Z,58.07
2018-07-10T09:20:51.460Z,58.39
2018-07-10T09:22:01.529Z,57.9
2018-07-10T09:23:11.239Z,57.9
2018-07-10T09:24:21.698Z,57.9
2018-07-10T09:25:31.070Z,58.19
2018-07-10T09:26:41.151Z,57.71
2018-07-10T09:27:51.232Z,57.23
2018-07-10T09:29:00.821Z,57.23
2018-07-10T09:30:10.669Z,56.1
2018-07-10T09:31:20.209Z,56.77
2018-07-10T09:32:30.297Z,55.81
2018-07-10T09:33:40.039Z,56.87
2018-07-10T09:34:50.406Z,56.2
2018-07-10T09:36:00.484Z,56
2018-07-10T09:37:10.582Z,55.81
2018-07-10T09:38:20.584Z,55.9
2018-07-10T09:39:30.390Z,55.45
2018-07-10T09:40:40.238Z,54.58
2018-07-10T09:41:50.031Z,53.61
2018-07-10T09:43:00.097Z,52.75
2018-07-10T09:44:10.434Z,53.88
2018-07-10T09:45:20.679Z,53.78
2018-07-10T09:46:30.273Z,55.49
2018-07-10T09:47:40.075Z,55.49
2018-07-10T09:48:49.621Z,55.23
2018-07-10T09:49:59.418Z,56.48
2018-07-10T09:51:09.509Z,56.77
2018-07-10T09:52:19.637Z,56.1
2018-07-10T09:53:29.706Z,56.87
2018-07-10T09:54:39.864Z,54.75
2018-07-10T09:55:50.248Z,55.52
2018-07-10T09:56:59.771Z,55.52
2018-07-10T09:58:09.111Z,55.52
2018-07-10T09:59:19.186Z,56.39
2018-07-10T10:00:28.987Z,56.87
2018-07-10T10:01:38.802Z,56.9
2018-07-10T10:02:48.644Z,55.35
2018-07-10T10:03:58.493Z,55.55
2018-07-10T10:05:08.570Z,55.26
2018-07-10T10:06:18.362Z,54.77
2018-07-10T10:07:28.151Z,54.51
2018-07-10T10:08:37.972Z,52.67
2018-07-10T10:09:47.829Z,54.41
2018-07-10T10:10:57.908Z,54.13
2018-07-10T10:12:07.700Z,53.93
2018-07-10T10:13:17.521Z,53.83
2018-07-10T10:14:27.603Z,54.13
2018-07-10T10:15:37.467Z,54.22
2018-07-10T10:16:47.267Z,54.93
2018-07-10T10:17:57.078Z,54.15
2018-07-10T10:19:06.605Z,53.86
2018-07-10T10:20:16.677Z,52.89
2018-07-10T10:21:26.528Z,52.61
2018-07-10T10:22:36.606Z,52.05
2018-07-10T10:23:46.660Z,52.34
2018-07-10T10:24:56.195Z,51.47
2018-07-10T10:26:05.728Z,50.4
2018-07-10T10:27:15.856Z,51.76
2018-07-10T10:28:25.658Z,52.92
2018-07-10T10:29:35.444Z,53.02
2018-07-10T10:30:44.707Z,51.86
2018-07-10T10:31:53.981Z,51.37
2018-07-10T10:33:03.843Z,51.95
2018-07-10T10:34:13.909Z,51.76
2018-07-10T10:35:23.447Z,51.5
2018-07-10T10:36:33.544Z,50.52
2018-07-10T10:37:43.349Z,50.52
2018-07-10T10:38:53.467Z,51.1
2018-07-10T10:40:03.559Z,50.92
2018-07-10T10:41:13.362Z,50.92
2018-07-10T10:42:23.469Z,50.33
2018-07-10T10:43:33.542Z,51.32
2018-07-10T10:44:42.571Z,51.04
2018-07-10T10:45:52.386Z,49.29
2018-07-10T10:47:01.939Z,51.13
2018-07-10T10:48:11.740Z,50.65
2018-07-10T10:49:21.333Z,50.65
2018-07-10T10:50:31.726Z,50.55
2018-07-10T10:51:41.803Z,49.58
2018-07-10T10:52:51.612Z,50.26
2018-07-10T10:54:01.690Z,49.49
2018-07-10T10:55:10.955Z,48.9
2018-07-10T10:56:20.527Z,49.19
2018-07-10T10:57:30.055Z,49.32
2018-07-10T10:58:40.132Z,47.67
2018-07-10T10:59:50.192Z,48.35
2018-07-10T11:00:59.719Z,48.35
2018-07-10T11:02:09.588Z,49.02
2018-07-10T11:03:19.760Z,49.12
2018-07-10T11:04:29.545Z,47.02
2018-07-10T11:05:39.366Z,47.86
2018-07-10T11:06:49.185Z,47.3
2018-07-10T11:07:59.519Z,46.62
2018-07-10T11:09:08.834Z,46.72
2018-07-10T11:10:18.651Z,47.3
2018-07-10T11:11:28.481Z,47.79
2018-07-10T11:12:38.347Z,46.33
2018-07-10T11:13:47.932Z,46.24
2018-07-10T11:14:58.008Z,47.02
2018-07-10T11:16:07.806Z,47.2
2018-07-10T11:17:17.630Z,47.11
2018-07-10T11:18:27.715Z,46.62
2018-07-10T11:19:37.313Z,46.94
2018-07-10T11:20:47.114Z,46.36
2018-07-10T11:21:56.370Z,44.71
2018-07-10T11:23:06.445Z,45
2018-07-10T11:24:16.255Z,45.97
2018-07-10T11:25:26.392Z,46.84
2018-07-10T11:26:36.473Z,47.23
2018-07-10T11:27:46.553Z,47.81
2018-07-10T11:28:56.617Z,47.23
2018-07-10T11:30:06.421Z,45.87
2018-07-10T11:31:16.272Z,47.23
2018-07-10T11:32:26.338Z,45.8
2018-07-10T11:33:36.156Z,45.41
2018-07-10T11:34:46.254Z,45.62
2018-07-10T11:35:56.056Z,45.82
2018-07-10T11:37:05.368Z,45.43
2018-07-10T11:38:14.955Z,44.58
2018-07-10T11:39:25.051Z,46.94
2018-07-10T11:40:35.164Z,43.82
2018-07-10T11:41:44.703Z,42.41
2018-07-10T11:42:55.022Z,42.82
2018-07-10T11:44:04.836Z,41.86
2018-07-10T11:45:14.922Z,37.71
2018-07-10T11:46:24.736Z,38.01
2018-07-10T11:47:34.540Z,39.88
2018-07-10T11:48:44.396Z,39.02
2018-07-10T11:49:54.480Z,38.67
2018-07-10T11:51:04.026Z,38.61
2018-07-10T11:52:14.113Z,37.85
2018-07-10T11:53:24.200Z,35.34
2018-07-10T11:54:34.357Z,36.82
2018-07-10T11:55:44.189Z,36.74
2018-07-10T11:56:54.268Z,35.58
2018-07-10T11:58:04.088Z,31.3
2018-07-10T11:59:14.182Z,31.99
2018-07-10T12:00:24.309Z,32.21
2018-07-10T12:01:34.387Z,31.54
2018-07-10T12:02:44.185Z,30.79
2018-07-10T12:03:54.284Z,30.21
2018-07-10T12:05:04.090Z,30.13
2018-07-10T12:06:13.967Z,28.68
2018-07-10T12:07:24.055Z,27.01
2018-07-10T12:08:34.155Z,26.72
2018-07-10T12:09:44.252Z,25.93
2018-07-10T12:10:53.528Z,28.36
2018-07-10T12:12:03.656Z,28.19
2018-07-10T12:13:13.793Z,27.13
2018-07-10T12:14:23.863Z,26.75
2018-07-10T12:15:33.674Z,25.68
2018-07-10T12:16:43.227Z,25.7
2018-07-10T12:17:53.108Z,24.22
2018-07-10T12:19:02.953Z,24.03
2018-07-10T12:20:13.058Z,22.73
2018-07-10T12:21:23.149Z,22.12
2018-07-10T12:22:32.975Z,24.68
2018-07-10T12:23:43.130Z,25.56
2018-07-10T12:24:52.681Z,24.98
2018-07-10T12:26:02.218Z,24.6
2018-07-10T12:27:11.487Z,23.93
2018-07-10T12:28:21.027Z,23.65
2018-07-10T12:29:31.166Z,23.36
2018-07-10T12:30:41.003Z,22.89
2018-07-10T12:31:51.109Z,22.5
2018-07-10T12:33:00.939Z,21.42
2018-07-10T12:34:10.764Z,22.22
2018-07-10T12:35:20.643Z,20.45
2018-07-10T12:36:30.729Z,20.26
2018-07-10T12:37:40.556Z,19.16
2018-07-10T12:38:50.635Z,20.72
2018-07-10T12:40:00.456Z,20.41
2018-07-10T12:41:10.054Z,20.57
2018-07-10T12:42:20.147Z,21.7
2018-07-10T12:43:29.971Z,22.56
2018-07-10T12:44:39.800Z,24.05
2018-07-10T12:45:49.407Z,23.36
2018-07-10T12:47:01.285Z,22.97
2018-07-10T12:48:11.119Z,22.39
2018-07-10T12:49:20.682Z,23.66
2018-07-10T12:50:30.663Z,23.1
2018-07-10T12:51:40.206Z,20.45
2018-07-10T12:52:49.820Z,21.87
2018-07-10T12:53:59.925Z,23.93
2018-07-10T12:55:10.014Z,22.63
2018-07-10T12:56:19.987Z,24.68
2018-07-10T12:57:29.794Z,22.91
2018-07-10T12:58:39.377Z,24.49
2018-07-10T12:59:49.216Z,22.73
2018-07-10T13:00:59.318Z,23.41
2018-07-10T13:02:09.143Z,25.34
2018-07-10T13:03:18.690Z,23.68
2018-07-10T13:04:28.635Z,24.18
2018-07-10T13:05:38.297Z,23.51
2018-07-10T13:06:47.850Z,23.72
2018-07-10T13:07:57.667Z,22.84
2018-07-10T13:09:07.238Z,24.6
2018-07-10T13:10:17.343Z,24.13
2018-07-10T13:11:27.439Z,22.78
2018-07-10T13:12:36.986Z,23.21
2018-07-10T13:13:46.263Z,22.72
2018-07-10T13:14:56.085Z,21.56
2018-07-10T13:16:05.989Z,19.29
2018-07-10T13:17:16.077Z,20.06
2018-07-10T13:18:25.781Z,20.44
2018-07-10T13:19:36.129Z,21.01
2018-07-10T13:20:46.236Z,21.3
2018-07-10T13:21:56.397Z,21.09
2018-07-10T13:23:05.947Z,21.47
2018-07-10T13:24:16.034Z,23.13
2018-07-10T13:25:26.140Z,22.95
2018-07-10T13:26:35.699Z,20.42
2018-07-10T13:27:45.590Z,20.72
2018-07-10T13:28:55.142Z,20.41
2018-07-10T13:30:04.730Z,21.09
2018-07-10T13:31:14.558Z,22.92
2018-07-10T13:32:24.643Z,24
2018-07-10T13:33:34.521Z,23.29
2018-07-10T13:34:43.810Z,22.92
2018-07-10T13:35:53.497Z,21.94
2018-07-10T13:37:03.869Z,21.66
2018-07-10T13:38:13.689Z,21.34
2018-07-10T13:39:23.285Z,21.63
2018-07-10T13:40:33.375Z,21.92
2018-07-10T13:41:43.484Z,22.71
2018-07-10T13:42:53.595Z,23.68
2018-07-10T13:44:03.685Z,21.94
2018-07-10T13:45:13.836Z,22.41
2018-07-10T13:46:23.927Z,21.44
2018-07-10T13:47:34.028Z,21.83
2018-07-10T13:48:43.851Z,21.72
2018-07-10T13:49:53.671Z,22.78
2018-07-10T13:51:03.528Z,23.2
2018-07-10T13:52:12.542Z,22.52
2018-07-10T13:53:22.635Z,22.02
2018-07-10T13:54:32.193Z,23.11
2018-07-10T13:55:41.752Z,22.36
2018-07-10T13:56:51.670Z,22.19
2018-07-10T13:58:02.225Z,19.26
2018-07-10T13:59:12.053Z,18.08
2018-07-10T14:00:21.887Z,19.44
2018-07-10T14:01:31.165Z,19.34
2018-07-10T14:02:41.048Z,20.44
2018-07-10T14:03:50.614Z,20.46
2018-07-10T14:05:00.713Z,18.01
2018-07-10T14:06:10.264Z,21.07
2018-07-10T14:07:19.825Z,20.67
2018-07-10T14:08:29.438Z,19.4
2018-07-10T14:09:38.735Z,18.14
2018-07-10T14:10:48.836Z,17.14
2018-07-10T14:11:58.925Z,17.63
2018-07-10T14:13:08.754Z,18.62
2018-07-10T14:14:18.637Z,17.93
2018-07-10T14:15:28.196Z,17.93
2018-07-10T14:16:38.023Z,18.92
2018-07-10T14:17:48.106Z,17.05
2018-07-10T14:18:57.660Z,16.86
2018-07-10T14:20:07.792Z,18.33
2018-07-10T14:21:17.615Z,16.27
2018-07-10T14:22:27.579Z,16.77
2018-07-10T14:23:37.125Z,17.16
2018-07-10T14:24:47.243Z,16.27
2018-07-10T14:25:56.852Z,16.64
2018-07-10T14:27:06.671Z,17.02
2018-07-10T14:28:16.636Z,16.53
2018-07-10T14:29:27.087Z,17.31
2018-07-10T14:30:36.084Z,17
2018-07-10T14:31:45.957Z,17.11
2018-07-10T14:32:56.057Z,18.27
2018-07-10T14:34:05.609Z,17.3
2018-07-10T14:35:15.434Z,16.71
2018-07-10T14:36:25.253Z,18.79
2018-07-10T14:37:35.419Z,16.62
2018-07-10T14:38:45.256Z,17.19
2018-07-10T14:39:55.344Z,18.57
2018-07-10T14:41:05.169Z,18.56
2018-07-10T14:42:15.271Z,18.48
2018-07-10T14:43:25.419Z,16.92
2018-07-10T14:44:35.524Z,17.91
2018-07-10T14:45:45.603Z,16.46
2018-07-10T14:46:55.702Z,16.75
2018-07-10T14:48:05.793Z,15.37
2018-07-10T14:49:15.932Z,15.17
2018-07-10T14:50:25.755Z,15.35
2018-07-10T14:51:35.830Z,16.34
2018-07-10T14:52:45.980Z,16.84
2018-07-10T14:53:56.122Z,15.67
2018-07-10T14:55:06.003Z,15.39
2018-07-10T14:56:15.833Z,14.6
2018-07-10T14:57:25.675Z,14.12
2018-07-10T14:58:35.771Z,16.2
2018-07-10T14:59:45.874Z,14.92
2018-07-10T15:00:56.033Z,15.14
2018-07-10T15:02:05.594Z,14.06
2018-07-10T15:03:15.410Z,14.06
2018-07-10T15:04:24.980Z,13.39
2018-07-10T15:05:35.074Z,13.39
2018-07-10T15:06:45.220Z,12.9